createdAt,value
2023-01-20T00:01:12.315Z,24.05
2023-01-20T00:03:40.459Z,19.35
2023-01-20T00:06:08.066Z,17.77
2023-01-20T00:08:35.031Z,19.50
2023-01-20T00:11:10.774Z,21.13
2023-01-20T00:13:38.133Z,20.63
2023-01-20T00:16:09.482Z,19.05
2023-01-20T00:18:38.431Z,22.08
2023-01-20T00:21:13.162Z,22.38
2023-01-20T00:23:41.148Z,18.67
2023-01-20T00:26:10.709Z,21.48
2023-01-20T00:28:38.167Z,20.70
2023-01-20T00:31:16.840Z,22.77
2023-01-20T00:33:44.111Z,18.42
2023-01-20T00:36:12.537Z,17.88
2023-01-20T00:38:39.414Z,16.98
2023-01-20T00:41:06.877Z,18.80
2023-01-20T00:43:33.700Z,21.42
2023-01-20T00:46:00.359Z,20.75
2023-01-20T00:48:27.195Z,22.48
2023-01-20T00:50:53.834Z,22.65
2023-01-20T00:53:20.550Z,21.42
2023-01-20T00:55:47.177Z,20.92
2023-01-20T00:58:13.798Z,18.05
2023-01-20T01:00:40.525Z,19.33
2023-01-20T01:03:07.308Z,20.13
2023-01-20T01:05:34.011Z,22.50
2023-01-20T01:08:00.660Z,19.05
2023-01-20T01:14:15.176Z,21.75
2023-01-20T01:16:41.841Z,16.98
2023-01-20T01:19:08.796Z,18.75
2023-01-20T01:21:35.466Z,19.75
2023-01-20T01:24:02.057Z,19.08
2023-01-20T01:26:28.710Z,17.45
2023-01-20T01:28:55.309Z,18.58
2023-01-20T01:31:22.135Z,22.40
2023-01-20T01:33:49.328Z,21.08
2023-01-20T01:36:17.244Z,18.13
2023-01-20T01:38:44.366Z,16.83
2023-01-20T01:41:15.215Z,16.63
2023-01-20T01:44:01.017Z,18.92
2023-01-20T01:46:27.741Z,14.85
2023-01-20T01:48:55.626Z,20.38
2023-01-20T01:51:25.932Z,15.73
2023-01-20T01:53:57.686Z,15.13
2023-01-20T01:56:27.434Z,16.27
2023-01-20T01:58:57.403Z,16.63
2023-01-20T02:01:25.520Z,22.08
2023-01-20T02:04:12.049Z,15.65
2023-01-20T02:06:46.465Z,18.10
2023-01-20T02:09:13.446Z,16.50
2023-01-20T02:11:48.294Z,16.60
2023-01-20T02:14:17.891Z,16.83
2023-01-20T02:17:21.940Z,17.05
2023-01-20T02:20:16.313Z,17.65
2023-01-20T02:22:51.885Z,15.95
2023-01-20T02:25:52.255Z,19.80
2023-01-20T02:28:47.312Z,16.23
2023-01-20T02:31:51.522Z,15.70
2023-01-20T02:34:38.818Z,15.40
2023-01-20T02:37:19.580Z,15.75
2023-01-20T02:40:11.373Z,15.30
2023-01-20T02:42:43.398Z,13.35
2023-01-20T02:45:49.592Z,15.75
2023-01-20T02:49:11.605Z,14.15
2023-01-20T02:52:01.746Z,13.55
2023-01-20T02:54:32.706Z,14.38
2023-01-20T02:57:02.333Z,16.52
2023-01-20T02:59:37.750Z,15.15
2023-01-20T03:02:09.034Z,15.02
2023-01-20T03:04:51.099Z,15.07
2023-01-20T03:07:21.222Z,15.45
2023-01-20T03:09:50.991Z,15.88
2023-01-20T03:12:26.792Z,14.55
2023-01-20T03:14:53.777Z,15.75
2023-01-20T03:17:21.871Z,15.63
2023-01-20T03:19:48.765Z,15.27
2023-01-20T03:22:16.646Z,13.30
2023-01-20T03:24:46.230Z,13.52
2023-01-20T03:27:13.621Z,17.75
2023-01-20T03:29:40.310Z,13.88
2023-01-20T03:32:09.715Z,14.73
2023-01-20T03:34:39.645Z,16.23
2023-01-20T03:37:07.375Z,12.70
2023-01-20T03:39:39.595Z,15.30
2023-01-20T03:42:14.914Z,11.52
2023-01-20T03:44:50.521Z,13.05
2023-01-20T03:47:46.965Z,16.48
2023-01-20T03:50:25.212Z,14.07
2023-01-20T03:53:06.035Z,15.43
2023-01-20T03:55:43.216Z,15.60
2023-01-20T03:58:15.001Z,16.67
2023-01-20T04:00:45.183Z,15.90
2023-01-20T04:03:18.776Z,19.40
2023-01-20T04:05:47.667Z,16.52
2023-01-20T04:08:17.332Z,15.70
2023-01-20T04:10:47.448Z,16.25
2023-01-20T04:13:15.197Z,16.10
2023-01-20T04:15:44.384Z,16.80
2023-01-20T04:18:13.222Z,16.48
2023-01-20T04:20:40.532Z,19.05
2023-01-20T04:23:12.050Z,17.30
2023-01-20T04:25:38.828Z,16.15
2023-01-20T04:28:05.421Z,15.77
2023-01-20T04:30:32.034Z,17.73
2023-01-20T04:32:58.672Z,17.70
2023-01-20T04:35:25.382Z,18.25
2023-01-20T04:37:51.984Z,18.42
2023-01-20T04:40:18.695Z,18.38
2023-01-20T04:42:45.294Z,18.27
2023-01-20T04:45:16.520Z,19.77
2023-01-20T04:47:44.099Z,19.98
2023-01-20T04:50:12.134Z,21.50
2023-01-20T04:52:38.716Z,20.83
2023-01-20T04:55:05.797Z,21.73
2023-01-20T04:57:32.705Z,21.33
2023-01-20T04:59:59.309Z,20.77
2023-01-20T05:02:25.971Z,20.33
2023-01-20T05:04:52.609Z,19.55
2023-01-20T05:07:19.167Z,23.05
2023-01-20T05:09:45.801Z,21.10
2023-01-20T05:12:12.390Z,20.42
2023-01-20T05:14:38.964Z,21.27
2023-01-20T05:17:05.603Z,24.38
2023-01-20T05:19:32.208Z,21.80
2023-01-20T05:22:00.299Z,22.67
2023-01-20T05:24:26.923Z,20.95
2023-01-20T05:26:53.593Z,22.33
2023-01-20T05:29:20.203Z,21.30
2023-01-20T05:31:46.857Z,21.10
2023-01-20T05:34:13.486Z,23.65
2023-01-20T05:36:40.062Z,19.92
2023-01-20T05:39:06.748Z,20.67
2023-01-20T05:41:33.314Z,22.98
2023-01-20T05:43:59.921Z,17.73
2023-01-20T05:46:26.555Z,19.55
2023-01-20T05:48:53.215Z,22.27
2023-01-20T05:51:19.992Z,20.33
2023-01-20T05:53:46.598Z,20.20
2023-01-20T05:56:15.836Z,18.83
2023-01-20T05:58:42.849Z,19.30
2023-01-20T06:01:12.098Z,21.40
2023-01-20T06:03:39.490Z,19.98
2023-01-20T06:06:08.929Z,20.65
2023-01-20T06:08:36.017Z,21.45
2023-01-20T06:11:02.802Z,19.65
2023-01-20T06:13:29.542Z,21.17
2023-01-20T06:15:56.642Z,21.15
2023-01-20T06:18:24.435Z,21.00
2023-01-20T06:20:51.504Z,20.65
2023-01-20T06:23:18.338Z,22.40
2023-01-20T06:25:44.941Z,26.45
2023-01-20T06:28:11.612Z,20.50
2023-01-20T06:30:38.554Z,17.92
2023-01-20T06:33:10.529Z,23.40
2023-01-20T06:35:37.753Z,21.05
2023-01-20T06:38:04.479Z,21.70
2023-01-20T06:40:31.628Z,20.17
2023-01-20T06:42:59.092Z,23.60
2023-01-20T06:45:26.432Z,20.17
2023-01-20T06:47:53.450Z,23.40
2023-01-20T06:50:20.464Z,22.48
2023-01-20T06:52:47.540Z,23.88
2023-01-20T06:55:15.026Z,22.92
2023-01-20T06:57:42.139Z,22.60
2023-01-20T07:00:09.487Z,20.30
2023-01-20T07:02:36.551Z,24.83
2023-01-20T07:05:04.547Z,23.13
2023-01-20T07:07:31.143Z,22.65
2023-01-20T07:09:57.714Z,21.45
2023-01-20T07:12:24.259Z,24.30
2023-01-20T07:14:50.941Z,23.85
2023-01-20T07:17:17.542Z,25.55
2023-01-20T07:19:44.255Z,25.25
2023-01-20T07:22:10.840Z,29.13
2023-01-20T07:24:37.640Z,26.02
2023-01-20T07:27:04.312Z,22.05
2023-01-20T07:29:30.930Z,24.67
2023-01-20T07:31:57.628Z,25.25
2023-01-20T07:34:24.399Z,24.42
2023-01-20T07:36:53.915Z,26.75
2023-01-20T07:39:21.627Z,25.50
2023-01-20T07:41:51.301Z,23.48
2023-01-20T07:44:17.939Z,23.83
2023-01-20T07:46:44.601Z,23.10
2023-01-20T07:49:12.476Z,23.15
2023-01-20T07:51:39.782Z,29.17
2023-01-20T07:54:06.723Z,25.85
2023-01-20T07:56:33.435Z,25.20
2023-01-20T07:59:00.129Z,25.92
2023-01-20T08:01:29.849Z,24.23
2023-01-20T08:03:57.850Z,24.02
2023-01-20T08:06:26.301Z,26.58
2023-01-20T08:08:53.870Z,26.77
2023-01-20T08:11:21.647Z,22.63
2023-01-20T08:13:48.901Z,24.70
2023-01-20T08:16:18.477Z,24.30
2023-01-20T08:18:46.030Z,22.42
2023-01-20T08:21:22.957Z,24.27
2023-01-20T08:23:50.278Z,22.27
2023-01-20T08:26:19.175Z,23.80
2023-01-20T08:28:45.811Z,25.70
2023-01-20T08:31:15.001Z,23.98
2023-01-20T08:33:43.260Z,25.15
2023-01-20T08:36:16.538Z,21.50
2023-01-20T08:38:44.136Z,24.35
2023-01-20T08:41:14.233Z,24.73
2023-01-20T08:43:41.926Z,24.13
2023-01-20T08:46:12.150Z,21.23
2023-01-20T08:48:40.420Z,22.23
2023-01-20T08:51:10.094Z,21.77
2023-01-20T08:53:36.771Z,21.27
2023-01-20T08:56:04.009Z,23.95
2023-01-20T08:58:31.689Z,24.50
2023-01-20T09:00:58.438Z,27.80
2023-01-20T09:03:25.363Z,22.63
2023-01-20T09:05:52.322Z,23.60
2023-01-20T09:08:19.604Z,24.45
2023-01-20T09:10:47.045Z,21.02
2023-01-20T09:13:14.083Z,25.13
2023-01-20T09:15:41.215Z,21.48
2023-01-20T09:18:08.306Z,22.90
2023-01-20T09:20:35.436Z,24.60
2023-01-20T09:23:03.067Z,22.98
2023-01-20T09:25:29.823Z,21.90
2023-01-20T09:27:59.654Z,25.05
2023-01-20T09:30:26.303Z,19.60
2023-01-20T09:32:55.249Z,21.92
2023-01-20T09:35:22.065Z,21.80
2023-01-20T09:38:07.451Z,19.73
2023-01-20T09:41:12.002Z,19.20
2023-01-20T09:47:17.570Z,20.55
2023-01-20T09:50:09.931Z,19.92
2023-01-20T09:52:55.871Z,21.00
2023-01-20T09:55:46.681Z,21.00
2023-01-20T09:58:52.921Z,21.58
2023-01-20T10:01:30.907Z,21.52
2023-01-20T10:04:10.856Z,21.27
2023-01-20T10:06:42.507Z,17.38
2023-01-20T10:09:11.863Z,19.05
2023-01-20T10:11:42.386Z,19.90
2023-01-20T10:14:21.300Z,18.23
2023-01-20T10:16:54.064Z,18.48
2023-01-20T10:19:29.308Z,18.27
2023-01-20T10:22:22.298Z,16.95
2023-01-20T10:25:09.052Z,19.70
2023-01-20T10:27:40.883Z,19.13
2023-01-20T10:30:15.016Z,18.83
2023-01-20T10:32:52.331Z,20.73
2023-01-20T10:35:25.961Z,20.70
2023-01-20T10:37:53.572Z,17.60
2023-01-20T10:40:38.991Z,15.05
2023-01-20T10:43:12.678Z,16.25
2023-01-20T10:48:24.894Z,14.95
2023-01-20T10:51:03.523Z,18.00
2023-01-20T10:53:33.427Z,14.50
2023-01-20T10:56:24.025Z,16.05
2023-01-20T10:58:50.652Z,14.23
2023-01-20T11:01:21.524Z,14.32
2023-01-20T11:03:49.341Z,13.48
2023-01-20T11:06:19.526Z,11.80
2023-01-20T11:08:46.694Z,13.07
2023-01-20T11:11:15.800Z,15.02
2023-01-20T11:13:42.848Z,13.90
2023-01-20T11:16:29.014Z,13.98
2023-01-20T11:18:57.844Z,11.52
2023-01-20T11:21:25.620Z,13.07
2023-01-20T11:23:55.592Z,10.60
2023-01-20T11:26:28.428Z,14.68
2023-01-20T11:28:55.646Z,13.63
2023-01-20T11:31:33.525Z,15.70
2023-01-20T11:34:01.884Z,16.63
2023-01-20T11:36:29.087Z,18.05
2023-01-20T11:38:56.991Z,15.60
2023-01-20T11:41:31.490Z,15.95
2023-01-20T11:43:59.517Z,16.90
2023-01-20T11:46:29.765Z,16.15
2023-01-20T11:49:13.766Z,18.23
2023-01-20T11:54:09.030Z,16.83
2023-01-20T11:56:40.278Z,18.98
2023-01-20T11:59:17.602Z,18.25
2023-01-20T12:02:01.604Z,18.35
2023-01-20T12:04:49.067Z,21.27
2023-01-20T12:07:21.727Z,18.13
2023-01-20T12:09:51.747Z,19.58
2023-01-20T12:12:21.818Z,19.65
2023-01-20T12:14:54.736Z,22.55
2023-01-20T12:17:21.807Z,23.63
2023-01-20T12:20:09.301Z,19.17
2023-01-20T12:22:43.875Z,21.13
2023-01-20T12:25:19.946Z,20.60
2023-01-20T12:27:56.206Z,21.92
2023-01-20T12:30:41.952Z,20.92
2023-01-20T12:33:16.716Z,21.70
2023-01-20T12:35:47.591Z,20.98
2023-01-20T12:38:18.961Z,23.75
2023-01-20T12:40:49.883Z,23.00
2023-01-20T12:43:16.919Z,22.25
2023-01-20T12:45:50.738Z,25.77
2023-01-20T12:48:20.574Z,23.10
2023-01-20T12:51:02.585Z,22.70
2023-01-20T12:53:41.722Z,26.70
2023-01-20T12:56:11.620Z,26.40
2023-01-20T12:58:39.805Z,28.00
2023-01-20T13:01:33.308Z,26.17
2023-01-20T13:04:00.504Z,26.33
2023-01-20T13:06:36.700Z,25.70
2023-01-20T13:09:25.305Z,28.85
2023-01-20T13:12:07.516Z,28.65
2023-01-20T13:14:41.300Z,32.08
2023-01-20T13:17:26.698Z,25.58
2023-01-20T13:19:57.227Z,26.42
2023-01-20T13:22:25.635Z,29.90
2023-01-20T13:24:57.346Z,30.27
2023-01-20T13:27:36.033Z,31.38
2023-01-20T13:30:05.361Z,29.80
2023-01-20T13:32:45.085Z,33.75
2023-01-20T13:35:33.279Z,32.47
2023-01-20T13:38:01.451Z,32.60
2023-01-20T13:40:33.931Z,32.40
2023-01-20T13:43:00.607Z,28.65
2023-01-20T13:45:27.706Z,32.67
2023-01-20T13:48:02.417Z,32.30
2023-01-20T13:50:33.148Z,29.70
2023-01-20T13:53:23.976Z,34.00
2023-01-20T13:55:58.880Z,30.20
2023-01-20T13:58:34.150Z,30.80
2023-01-20T14:01:03.629Z,33.42
2023-01-20T14:03:35.042Z,32.33
2023-01-20T14:06:07.179Z,33.28
2023-01-20T14:08:48.417Z,32.20
2023-01-20T14:11:23.130Z,33.05
2023-01-20T14:14:07.299Z,34.13
2023-01-20T14:16:36.736Z,32.63
2023-01-20T14:19:36.172Z,35.30
2023-01-20T14:22:16.662Z,34.67
2023-01-20T14:24:45.123Z,33.08
2023-01-20T14:27:21.509Z,28.48
2023-01-20T14:29:50.227Z,34.50
2023-01-20T14:32:25.685Z,33.67
2023-01-20T14:34:56.117Z,32.50
2023-01-20T14:37:26.052Z,33.50
2023-01-20T14:39:54.906Z,37.95
2023-01-20T14:42:22.731Z,33.63
2023-01-20T14:44:50.803Z,33.60
2023-01-20T14:47:19.210Z,35.05
2023-01-20T14:49:47.636Z,34.47
2023-01-20T14:52:19.170Z,37.22
2023-01-20T14:54:46.482Z,35.65
2023-01-20T14:57:32.297Z,35.50
2023-01-20T15:00:21.315Z,31.83
2023-01-20T15:03:01.289Z,34.30
2023-01-20T15:05:37.853Z,32.67
2023-01-20T15:08:29.798Z,37.97
2023-01-20T15:11:18.362Z,37.22
2023-01-20T15:14:00.887Z,34.60
2023-01-20T15:16:38.741Z,36.90
2023-01-20T15:19:15.405Z,34.85
2023-01-20T15:21:46.587Z,36.13
2023-01-20T15:24:15.808Z,42.65
2023-01-20T15:26:42.876Z,39.30
2023-01-20T15:29:27.900Z,37.40
2023-01-20T15:31:56.088Z,38.25
2023-01-20T15:34:23.502Z,36.67
2023-01-20T15:36:51.649Z,43.58
2023-01-20T15:39:20.119Z,36.35
2023-01-20T15:41:48.638Z,34.58
2023-01-20T15:44:15.873Z,38.28
2023-01-20T15:46:42.924Z,36.55
2023-01-20T15:49:14.460Z,35.25
2023-01-20T15:51:42.554Z,34.72
2023-01-20T15:54:10.025Z,36.47
2023-01-20T15:56:38.799Z,37.15
2023-01-20T15:59:16.150Z,34.92
2023-01-20T16:01:46.888Z,35.15
2023-01-20T16:04:13.975Z,36.38
2023-01-20T16:06:41.044Z,35.30
2023-01-20T16:09:16.391Z,40.45
2023-01-20T16:11:43.450Z,35.33
2023-01-20T16:14:10.459Z,37.15
2023-01-20T16:16:37.518Z,41.03
2023-01-20T16:19:04.783Z,41.80
2023-01-20T16:21:31.827Z,43.33
2023-01-20T16:23:58.914Z,44.42
2023-01-20T16:26:27.030Z,39.60
2023-01-20T16:28:55.076Z,39.28
2023-01-20T16:31:22.747Z,40.72
2023-01-20T16:33:49.981Z,39.22
2023-01-20T16:36:18.274Z,41.60
2023-01-20T16:38:45.351Z,43.70
2023-01-20T16:41:15.244Z,39.70
2023-01-20T16:43:42.644Z,34.35
2023-01-20T16:46:20.379Z,38.17
2023-01-20T16:48:47.439Z,36.97
2023-01-20T16:51:15.231Z,42.17
2023-01-20T16:53:42.645Z,36.80
2023-01-20T16:56:22.948Z,40.92
2023-01-20T16:58:51.640Z,38.80
2023-01-20T17:01:24.878Z,38.30
2023-01-20T17:03:52.814Z,37.90
2023-01-20T17:06:21.261Z,36.47
2023-01-20T17:08:49.828Z,42.55
2023-01-20T17:11:20.421Z,43.70
2023-01-20T17:13:47.479Z,45.45
2023-01-20T17:16:14.801Z,46.40
2023-01-20T17:18:45.017Z,42.45
2023-01-20T17:21:12.551Z,39.00
2023-01-20T17:23:40.075Z,43.22
2023-01-20T17:26:08.022Z,44.13
2023-01-20T17:28:35.349Z,39.75
2023-01-20T17:31:02.880Z,40.17
2023-01-20T17:33:30.233Z,41.28
2023-01-20T17:36:01.512Z,45.03
2023-01-20T17:38:29.397Z,38.28
2023-01-20T17:41:01.122Z,42.20
2023-01-20T17:43:37.963Z,43.58
2023-01-20T17:46:13.886Z,42.13
2023-01-20T17:48:41.112Z,43.53
2023-01-20T17:51:14.169Z,46.35
2023-01-20T17:53:41.469Z,44.03
2023-01-20T17:56:12.645Z,48.05
2023-01-20T17:58:40.788Z,47.63
2023-01-20T18:01:15.059Z,47.33
2023-01-20T18:03:43.173Z,51.58
2023-01-20T18:06:11.681Z,50.83
2023-01-20T18:08:38.743Z,48.70
2023-01-20T18:11:06.896Z,53.08
2023-01-20T18:13:35.206Z,47.70
2023-01-20T18:16:07.035Z,44.47
2023-01-20T18:18:34.337Z,49.20
2023-01-20T18:21:08.237Z,44.35
2023-01-20T18:23:36.893Z,45.17
2023-01-20T18:26:05.794Z,41.63
2023-01-20T18:28:33.638Z,48.30
2023-01-20T18:31:08.317Z,44.42
2023-01-20T18:33:40.915Z,44.83
2023-01-20T18:36:08.846Z,43.58
2023-01-20T18:38:36.307Z,44.28
2023-01-20T18:41:03.704Z,44.13
2023-01-20T18:43:31.194Z,52.05
2023-01-20T18:45:58.294Z,41.78
2023-01-20T18:48:25.420Z,42.97
2023-01-20T18:50:53.035Z,40.50
2023-01-20T18:53:20.118Z,39.67
2023-01-20T18:55:47.805Z,42.28
2023-01-20T18:58:16.512Z,40.78
2023-01-20T19:00:43.771Z,38.63
2023-01-20T19:03:10.833Z,40.03
2023-01-20T19:05:37.845Z,38.50
2023-01-20T19:08:05.146Z,39.20
2023-01-20T19:10:32.214Z,38.30
2023-01-20T19:12:59.357Z,36.13
2023-01-20T19:15:26.463Z,38.35
2023-01-20T19:17:53.621Z,38.67
2023-01-20T19:20:20.664Z,40.88
2023-01-20T19:22:47.696Z,37.75
2023-01-20T19:25:14.774Z,39.58
2023-01-20T19:27:41.816Z,41.17
2023-01-20T19:30:10.143Z,39.65
2023-01-20T19:32:40.998Z,40.40
2023-01-20T19:35:08.603Z,44.13
2023-01-20T19:37:35.217Z,39.85
2023-01-20T19:40:01.818Z,40.88
2023-01-20T19:42:29.776Z,41.33
2023-01-20T19:44:56.565Z,39.90
2023-01-20T19:47:23.223Z,38.60
2023-01-20T19:49:49.871Z,45.03
2023-01-20T19:52:16.563Z,42.50
2023-01-20T19:54:43.185Z,39.58
2023-01-20T19:57:09.803Z,37.47
2023-01-20T19:59:40.609Z,39.75
2023-01-20T20:02:10.586Z,43.53
2023-01-20T20:04:37.189Z,36.92
2023-01-20T20:07:03.826Z,40.95
2023-01-20T20:09:30.521Z,40.72
2023-01-20T20:11:57.731Z,36.63
2023-01-20T20:14:24.453Z,41.40
2023-01-20T20:16:51.053Z,38.22
2023-01-20T20:19:19.179Z,41.25
2023-01-20T20:21:45.861Z,40.85
2023-01-20T20:24:13.772Z,42.83
2023-01-20T20:26:40.994Z,37.40
2023-01-20T20:29:08.865Z,38.28
2023-01-20T20:31:38.216Z,39.33
2023-01-20T20:34:06.042Z,38.03
2023-01-20T20:36:33.584Z,40.08
2023-01-20T20:39:01.475Z,36.42
2023-01-20T20:41:31.050Z,42.00
2023-01-20T20:43:58.848Z,37.15
2023-01-20T20:46:26.434Z,40.60
2023-01-20T20:48:59.173Z,41.30
2023-01-20T20:51:26.494Z,37.73
2023-01-20T20:53:55.068Z,33.92
2023-01-20T20:56:22.990Z,39.55
2023-01-20T20:59:00.971Z,43.17
2023-01-20T21:01:30.239Z,40.85
2023-01-20T21:03:57.863Z,38.47
2023-01-20T21:06:25.399Z,37.90
2023-01-20T21:08:53.008Z,39.25
2023-01-20T21:11:20.200Z,38.88
2023-01-20T21:13:49.030Z,39.75
2023-01-20T21:16:16.997Z,39.75
2023-01-20T21:18:44.226Z,40.33
2023-01-20T21:21:13.050Z,39.92
2023-01-20T21:23:43.356Z,42.30
2023-01-20T21:26:12.487Z,40.13
2023-01-20T21:28:40.563Z,39.70
2023-01-20T21:31:09.233Z,41.40
2023-01-20T21:33:38.317Z,45.20
2023-01-20T21:36:07.046Z,37.38
2023-01-20T21:38:34.149Z,35.38
2023-01-20T21:41:09.732Z,43.05
2023-01-20T21:43:56.355Z,43.03
2023-01-20T21:46:23.980Z,39.13
2023-01-20T21:49:09.811Z,41.08
2023-01-20T21:51:55.684Z,45.25
2023-01-20T21:54:22.833Z,43.20
2023-01-20T21:56:51.343Z,42.22
2023-01-20T21:59:18.093Z,42.05
2023-01-20T22:01:44.791Z,42.17
2023-01-20T22:04:11.498Z,42.25
2023-01-20T22:06:38.113Z,45.42
2023-01-20T22:09:04.751Z,45.25
2023-01-20T22:11:31.406Z,44.40
2023-01-20T22:13:58.029Z,45.15
2023-01-20T22:16:25.542Z,44.05
2023-01-20T22:18:53.541Z,42.85
2023-01-20T22:21:21.364Z,43.08
2023-01-20T22:23:48.477Z,42.20
2023-01-20T22:26:15.224Z,48.85
2023-01-20T22:28:43.153Z,44.63
2023-01-20T22:31:19.880Z,40.22
2023-01-20T22:33:54.384Z,45.67
2023-01-20T22:36:22.544Z,39.88
2023-01-20T22:38:50.696Z,41.30
2023-01-20T22:41:18.103Z,41.85
2023-01-20T22:43:45.085Z,42.97
2023-01-20T22:46:14.094Z,39.80
2023-01-20T22:48:41.602Z,43.45
2023-01-20T22:51:17.212Z,41.60
2023-01-20T22:53:44.430Z,43.95
2023-01-20T22:56:20.034Z,41.13
2023-01-20T22:58:47.157Z,45.00
2023-01-20T23:01:25.637Z,39.05
2023-01-20T23:04:00.833Z,41.50
2023-01-20T23:06:29.745Z,48.03
2023-01-20T23:08:56.322Z,44.03
2023-01-20T23:11:23.362Z,43.50
2023-01-20T23:13:50.933Z,44.78
2023-01-20T23:16:21.296Z,44.40
2023-01-20T23:18:48.454Z,44.63
2023-01-20T23:21:15.561Z,43.83
2023-01-20T23:23:42.256Z,38.70
2023-01-20T23:26:15.136Z,43.70
2023-01-20T23:28:43.143Z,45.53
2023-01-20T23:31:11.533Z,45.53
2023-01-20T23:33:38.986Z,43.78
2023-01-20T23:36:10.408Z,42.38
2023-01-20T23:38:37.003Z,45.15
2023-01-20T23:41:04.217Z,43.45
2023-01-20T23:43:31.447Z,40.85
2023-01-20T23:46:00.622Z,45.03
2023-01-20T23:48:27.732Z,44.60
2023-01-20T23:50:56.408Z,45.67
2023-01-20T23:53:23.292Z,48.83
2023-01-20T23:55:49.927Z,43.97
2023-01-20T23:58:16.609Z,42.50
